createdAt,value
2022-11-06T00:02:37.601Z,100411.16
2022-11-06T00:05:58.912Z,100398.63
2022-11-06T00:12:00.252Z,100406.03
2022-11-06T00:14:40.389Z,100404.09
2022-11-06T00:17:20.078Z,100407.13
2022-11-06T00:20:08.492Z,100403.38
2022-11-06T00:22:51.991Z,100420.22
2022-11-06T00:25:38.693Z,100413.78
2022-11-06T00:28:27.199Z,100405.47
2022-11-06T00:31:18.841Z,100407.81
2022-11-06T00:34:07.122Z,100408.91
2022-11-06T00:36:55.814Z,100412.56
2022-11-06T00:39:34.672Z,100392.53
2022-11-06T00:42:19.946Z,100416.69
2022-11-06T00:44:57.287Z,100415.28
2022-11-06T00:47:35.901Z,100424.25
2022-11-06T00:50:31.379Z,100434.94
2022-11-06T00:53:25.065Z,100429.41
2022-11-06T00:56:11.737Z,100422.91
2022-11-06T00:58:44.938Z,100421.09
2022-11-06T01:01:27.505Z,100420.31
2022-11-06T01:04:29.432Z,100419.72
2022-11-06T01:07:29.116Z,100426.19
2022-11-06T01:10:13.923Z,100424.06
2022-11-06T01:12:57.997Z,100418.91
2022-11-06T01:15:36.584Z,100430.25
2022-11-06T01:18:28.366Z,100419.97
2022-11-06T01:21:28.631Z,100417.22
2022-11-06T01:24:24.615Z,100424.19
2022-11-06T01:27:27.319Z,100425.38
2022-11-06T01:30:33.158Z,100439.53
2022-11-06T01:33:12.711Z,100427.09
2022-11-06T01:35:57.554Z,100432.63
2022-11-06T01:38:50.926Z,100444.38
2022-11-06T01:41:33.707Z,100446.16
2022-11-06T01:44:52.078Z,100439.97
2022-11-06T01:47:45.396Z,100433.97
2022-11-06T01:50:35.604Z,100431.88
2022-11-06T01:53:17.688Z,100423.72
2022-11-06T01:56:06.029Z,100406.59
2022-11-06T01:58:50.623Z,100426.66
2022-11-06T02:01:41.736Z,100435.69
2022-11-06T02:04:29.969Z,100430.47
2022-11-06T02:07:14.769Z,100433.44
2022-11-06T02:09:54.686Z,100437.19
2022-11-06T02:13:08.386Z,100416.88
2022-11-06T02:15:52.917Z,100430.84
2022-11-06T02:18:52.617Z,100424.09
2022-11-06T02:22:11.214Z,100426.47
2022-11-06T02:25:19.910Z,100426.56
2022-11-06T02:28:20.974Z,100431.88
2022-11-06T02:31:02.167Z,100433.81
2022-11-06T02:33:48.559Z,100434.75
2022-11-06T02:36:32.154Z,100430.25
2022-11-06T02:39:13.285Z,100425.63
2022-11-06T02:42:02.616Z,100433.47
2022-11-06T02:44:55.752Z,100438.69
2022-11-06T02:47:49.440Z,100431.63
2022-11-06T02:51:06.247Z,100437.63
2022-11-06T02:54:06.125Z,100431.38
2022-11-06T03:00:07.963Z,100441.34
2022-11-06T03:02:54.395Z,100432.47
2022-11-06T03:05:33.889Z,100447.84
2022-11-06T03:08:19.379Z,100459.03
2022-11-06T03:14:02.394Z,100456.56
2022-11-06T03:16:51.146Z,100454.63
2022-11-06T03:20:10.792Z,100457.16
2022-11-06T03:23:13.428Z,100445.75
2022-11-06T03:26:06.273Z,100458.38
2022-11-06T03:29:22.848Z,100450.66
2022-11-06T03:32:18.629Z,100449.94
2022-11-06T03:35:12.519Z,100442.28
2022-11-06T03:37:52.395Z,100457.81
2022-11-06T03:40:47.146Z,100460.53
2022-11-06T03:43:27.120Z,100459.03
2022-11-06T03:46:06.422Z,100473.34
2022-11-06T03:48:49.642Z,100477.00
2022-11-06T03:51:44.971Z,100475.41
2022-11-06T03:54:25.434Z,100481.38
2022-11-06T03:57:16.027Z,100481.41
2022-11-06T04:00:04.164Z,100476.38
2022-11-06T04:02:46.059Z,100481.34
2022-11-06T04:05:36.997Z,100443.56
2022-11-06T04:08:47.335Z,100470.91
2022-11-06T04:11:53.455Z,100481.44
2022-11-06T04:14:37.765Z,100485.56
2022-11-06T04:17:32.511Z,100480.25
2022-11-06T04:20:10.114Z,100496.47
2022-11-06T04:23:06.111Z,100492.94
2022-11-06T04:26:44.777Z,100483.13
2022-11-06T04:29:34.339Z,100490.94
2022-11-06T04:35:33.112Z,100510.94
2022-11-06T04:38:13.736Z,100494.69
2022-11-06T04:40:58.641Z,100506.84
2022-11-06T04:43:48.444Z,100509.06
2022-11-06T04:46:31.644Z,100511.38
2022-11-06T04:49:37.547Z,100494.25
2022-11-06T04:52:25.840Z,100512.63
2022-11-06T04:58:18.167Z,100503.44
2022-11-06T05:01:03.447Z,100503.50
2022-11-06T05:03:59.451Z,100486.94
2022-11-06T05:09:31.135Z,100507.00
2022-11-06T05:12:18.476Z,100514.13
2022-11-06T05:15:04.766Z,100510.03
2022-11-06T05:18:16.867Z,100507.31
2022-11-06T05:21:18.754Z,100525.25
2022-11-06T05:24:13.450Z,100531.94
2022-11-06T05:27:12.041Z,100528.69
2022-11-06T05:29:57.898Z,100527.28
2022-11-06T05:32:44.721Z,100528.88
2022-11-06T05:35:27.666Z,100540.09
2022-11-06T05:38:13.548Z,100539.31
2022-11-06T05:40:56.024Z,100530.47
2022-11-06T05:43:35.682Z,100547.69
2022-11-06T05:46:35.798Z,100551.06
2022-11-06T05:49:21.418Z,100563.06
2022-11-06T05:52:09.572Z,100552.84
2022-11-06T05:54:53.228Z,100563.72
2022-11-06T05:57:39.079Z,100571.13
2022-11-06T06:00:25.542Z,100571.66
2022-11-06T06:03:29.846Z,100577.84
2022-11-06T06:06:06.641Z,100577.94
2022-11-06T06:09:21.308Z,100584.91
2022-11-06T06:12:21.544Z,100584.81
2022-11-06T06:15:25.400Z,100591.81
2022-11-06T06:18:09.503Z,100586.81
2022-11-06T06:20:55.916Z,100599.03
2022-11-06T06:23:39.936Z,100596.41
2022-11-06T06:26:17.740Z,100599.69
2022-11-06T06:29:16.622Z,100583.69
2022-11-06T06:31:54.092Z,100604.53
2022-11-06T06:34:33.514Z,100604.34
2022-11-06T06:37:48.593Z,100496.22
2022-11-06T06:40:29.595Z,100588.81
2022-11-06T06:43:16.893Z,100604.41
2022-11-06T06:46:02.149Z,100613.06
2022-11-06T06:48:44.258Z,100601.97
2022-11-06T06:51:39.234Z,100502.28
2022-11-06T06:54:24.727Z,100611.81
2022-11-06T06:57:04.981Z,100611.66
2022-11-06T06:59:56.684Z,100614.00
2022-11-06T07:02:43.594Z,100613.78
2022-11-06T07:05:28.163Z,100629.09
2022-11-06T07:08:12.749Z,100623.75
2022-11-06T07:10:59.361Z,100619.13
2022-11-06T07:13:38.409Z,100630.06
2022-11-06T07:16:25.243Z,100619.44
2022-11-06T07:22:33.703Z,100629.47
2022-11-06T07:25:40.044Z,100623.47
2022-11-06T07:28:20.077Z,100620.75
2022-11-06T07:31:05.635Z,100631.97
2022-11-06T07:33:57.894Z,100628.53
2022-11-06T07:36:43.762Z,100636.25
2022-11-06T07:39:33.604Z,100642.00
2022-11-06T07:42:15.116Z,100649.09
2022-11-06T07:44:58.368Z,100655.72
2022-11-06T07:47:45.782Z,100651.25
2022-11-06T07:50:31.294Z,100657.47
2022-11-06T07:53:19.129Z,100637.59
2022-11-06T07:56:01.883Z,100656.53
2022-11-06T07:59:02.259Z,100667.84
2022-11-06T08:01:43.928Z,100666.97
2022-11-06T08:04:29.873Z,100677.84
2022-11-06T08:07:16.882Z,100680.09
2022-11-06T08:09:56.766Z,100678.25
2022-11-06T08:12:47.237Z,100681.50
2022-11-06T08:15:55.760Z,100686.66
2022-11-06T08:18:40.306Z,100670.81
2022-11-06T08:21:36.429Z,100683.91
2022-11-06T08:24:30.084Z,100692.97
2022-11-06T08:27:24.807Z,100700.31
2022-11-06T08:30:28.977Z,100683.72
2022-11-06T08:33:21.627Z,100684.56
2022-11-06T08:36:18.292Z,100703.38
2022-11-06T08:39:18.651Z,100705.72
2022-11-06T08:42:11.880Z,100706.34
2022-11-06T08:45:18.834Z,100718.22
2022-11-06T08:47:56.687Z,100711.66
2022-11-06T08:50:47.255Z,100705.16
2022-11-06T08:53:36.591Z,100712.78
2022-11-06T08:56:15.385Z,100712.97
2022-11-06T08:58:58.432Z,100711.91
2022-11-06T09:01:57.143Z,100715.44
2022-11-06T09:04:42.932Z,100703.72
2022-11-06T09:07:29.016Z,100710.66
2022-11-06T09:10:16.224Z,100710.53
2022-11-06T09:15:57.872Z,100713.81
2022-11-06T09:18:35.393Z,100713.81
2022-11-06T09:21:20.118Z,100683.25
2022-11-06T09:24:11.071Z,100592.91
2022-11-06T09:27:01.924Z,100714.03
2022-11-06T09:29:49.334Z,100671.00
2022-11-06T09:32:35.983Z,100712.28
2022-11-06T09:35:18.020Z,100713.28
2022-11-06T09:38:16.636Z,100716.28
2022-11-06T09:41:09.370Z,100719.34
2022-11-06T09:44:05.930Z,100709.50
2022-11-06T09:47:03.888Z,100716.84
2022-11-06T09:50:06.399Z,100716.25
2022-11-06T09:53:04.676Z,100711.00
2022-11-06T09:55:44.665Z,100690.94
2022-11-06T09:58:36.017Z,100718.09
2022-11-06T10:01:42.824Z,100715.78
2022-11-06T10:04:43.979Z,100708.28
2022-11-06T10:10:36.186Z,100698.13
2022-11-06T10:13:49.966Z,100705.03
2022-11-06T10:16:49.861Z,100687.75
2022-11-06T10:19:52.872Z,100638.75
2022-11-06T10:22:38.490Z,100694.75
2022-11-06T10:25:42.407Z,100682.53
2022-11-06T10:31:47.898Z,100696.94
2022-11-06T10:34:36.665Z,100704.47
2022-11-06T10:37:53.940Z,100693.44
2022-11-06T10:40:40.604Z,100670.97
2022-11-06T10:43:40.277Z,100696.50
2022-11-06T10:46:32.921Z,100647.13
2022-11-06T10:53:00.141Z,100684.59
2022-11-06T10:56:17.012Z,100701.06
2022-11-06T10:58:58.858Z,100544.59
2022-11-06T11:01:44.878Z,100708.63
2022-11-06T11:04:27.785Z,100688.63
2022-11-06T11:07:22.267Z,100711.31
2022-11-06T11:14:15.161Z,100709.69
2022-11-06T11:23:17.365Z,100586.88
2022-11-06T11:26:00.432Z,100717.81
2022-11-06T11:28:50.045Z,100713.47
2022-11-06T11:31:38.697Z,100708.31
2022-11-06T11:34:27.079Z,100711.91
2022-11-06T11:37:14.694Z,100712.88
2022-11-06T11:39:59.714Z,100623.91
2022-11-06T11:42:44.711Z,100713.09
2022-11-06T11:48:28.624Z,100733.53
2022-11-06T11:51:42.074Z,100739.56
2022-11-06T11:54:36.857Z,100736.81
2022-11-06T11:57:47.647Z,100751.63
2022-11-06T12:03:50.879Z,100739.09
2022-11-06T12:06:38.281Z,100747.50
2022-11-06T12:09:26.300Z,100754.28
2022-11-06T12:12:24.610Z,100749.03
2022-11-06T12:15:29.456Z,100747.16
2022-11-06T12:18:14.899Z,100743.25
2022-11-06T12:21:05.974Z,100713.97
2022-11-06T12:23:59.581Z,100751.13
2022-11-06T12:26:59.082Z,100761.38
2022-11-06T12:29:52.850Z,100761.94
2022-11-06T12:32:43.544Z,100767.38
2022-11-06T12:35:39.540Z,100751.06
2022-11-06T12:38:42.062Z,100776.22
2022-11-06T12:41:37.818Z,100759.41
2022-11-06T12:44:22.457Z,100776.38
2022-11-06T12:47:26.447Z,100777.09
2022-11-06T12:50:19.678Z,100777.13
2022-11-06T12:53:22.132Z,100780.22
2022-11-06T12:56:08.362Z,100675.84
2022-11-06T12:59:13.211Z,100761.19
2022-11-06T13:01:59.727Z,100783.75
2022-11-06T13:05:17.206Z,100726.63
2022-11-06T13:08:20.816Z,100776.94
2022-11-06T13:11:32.319Z,100774.13
2022-11-06T13:14:29.424Z,100786.91
2022-11-06T13:17:29.640Z,100787.81
2022-11-06T13:20:25.140Z,100778.66
2022-11-06T13:23:31.557Z,100790.94
2022-11-06T13:35:57.525Z,100794.31
2022-11-06T13:39:07.017Z,100665.19
2022-11-06T13:41:52.360Z,100789.56
2022-11-06T13:44:52.351Z,100764.91
2022-11-06T13:47:27.548Z,100796.06
2022-11-06T13:50:22.789Z,100793.50
2022-11-06T13:53:07.385Z,100799.56
2022-11-06T13:56:03.421Z,100798.03
2022-11-06T13:59:22.400Z,100778.03
2022-11-06T14:06:12.387Z,100809.97
2022-11-06T14:09:12.619Z,100811.34
2022-11-06T14:12:15.682Z,100825.34
2022-11-06T14:15:21.726Z,100818.44
2022-11-06T14:19:04.029Z,100819.69
2022-11-06T14:22:08.104Z,100798.00
2022-11-06T14:25:10.355Z,100831.97
2022-11-06T14:31:14.055Z,100842.38
2022-11-06T14:34:38.230Z,100832.66
2022-11-06T14:37:48.466Z,100841.91
2022-11-06T14:40:49.781Z,100819.28
2022-11-06T14:44:00.657Z,100726.44
2022-11-06T14:46:47.030Z,100836.50
2022-11-06T14:49:48.721Z,100842.16
2022-11-06T14:52:32.575Z,100843.31
2022-11-06T14:55:16.863Z,100843.41
2022-11-06T14:58:15.836Z,100846.72
2022-11-06T15:01:05.591Z,100817.16
2022-11-06T15:03:53.183Z,100841.31
2022-11-06T15:06:52.567Z,100840.47
2022-11-06T15:09:57.768Z,100849.66
2022-11-06T15:13:18.971Z,100855.50
2022-11-06T15:16:07.680Z,100832.19
2022-11-06T15:18:51.549Z,100849.56
2022-11-06T15:22:18.993Z,100851.97
2022-11-06T15:25:04.907Z,100839.88
2022-11-06T15:27:59.659Z,100854.69
2022-11-06T15:30:53.509Z,100857.19
2022-11-06T15:33:57.151Z,100856.22
2022-11-06T15:36:42.164Z,100858.22
2022-11-06T15:39:46.819Z,100859.00
2022-11-06T15:42:36.542Z,100847.78
2022-11-06T15:45:27.933Z,100872.88
2022-11-06T15:48:06.606Z,100869.72
2022-11-06T15:50:56.353Z,100847.06
2022-11-06T15:53:54.768Z,100861.66
2022-11-06T15:56:50.404Z,100815.22
2022-11-06T15:59:36.612Z,100872.25
2022-11-06T16:02:23.127Z,100870.50
2022-11-06T16:05:16.546Z,100854.41
2022-11-06T16:08:00.233Z,100844.81
2022-11-06T16:10:42.423Z,100753.13
2022-11-06T16:13:29.150Z,100795.69
2022-11-06T16:19:31.530Z,100752.31
2022-11-06T16:22:14.539Z,100856.69
2022-11-06T16:25:05.650Z,100857.91
2022-11-06T16:30:56.195Z,100874.31
2022-11-06T16:34:07.171Z,100875.75
2022-11-06T16:37:04.282Z,100867.78
2022-11-06T16:39:57.747Z,100723.56
2022-11-06T16:42:52.398Z,100800.09
2022-11-06T16:45:38.901Z,100870.84
2022-11-06T16:48:58.470Z,100873.75
2022-11-06T16:54:40.949Z,100868.28
2022-11-06T16:57:25.974Z,100854.25
2022-11-06T17:00:30.122Z,100855.97
2022-11-06T17:03:13.659Z,100708.81
2022-11-06T17:06:17.848Z,100867.47
2022-11-06T17:09:12.805Z,100871.59
2022-11-06T17:12:00.759Z,100866.66
2022-11-06T17:14:46.865Z,100874.00
2022-11-06T17:17:35.334Z,100824.69
2022-11-06T17:23:30.786Z,100870.47
2022-11-06T17:26:22.057Z,100885.06
2022-11-06T17:29:03.002Z,100831.31
2022-11-06T17:31:56.978Z,100879.91
2022-11-06T17:34:53.045Z,100874.25
2022-11-06T17:37:43.276Z,100877.25
2022-11-06T17:40:25.093Z,100877.81
2022-11-06T17:43:16.324Z,100878.50
2022-11-06T17:45:51.892Z,100745.13
2022-11-06T17:48:28.071Z,100880.56
2022-11-06T17:51:21.043Z,100868.94
2022-11-06T17:54:08.456Z,100869.22
2022-11-06T17:56:45.864Z,100868.28
2022-11-06T17:59:33.509Z,100860.88
2022-11-06T18:02:54.790Z,100864.69
2022-11-06T18:08:37.134Z,100864.81
2022-11-06T18:11:28.990Z,100860.84
2022-11-06T18:14:11.951Z,100868.53
2022-11-06T18:17:01.294Z,100867.31
2022-11-06T18:19:49.441Z,100869.06
2022-11-06T18:22:34.530Z,100870.63
2022-11-06T18:25:11.617Z,100881.19
2022-11-06T18:27:48.185Z,100879.56
2022-11-06T18:30:46.268Z,100882.88
2022-11-06T18:33:40.743Z,100876.09
2022-11-06T18:36:35.446Z,100894.03
2022-11-06T18:39:41.099Z,100887.91
2022-11-06T18:42:40.064Z,100890.50
2022-11-06T18:45:25.977Z,100897.31
2022-11-06T18:48:18.338Z,100897.84
2022-11-06T18:51:33.511Z,100885.19
2022-11-06T18:57:05.970Z,100900.66
2022-11-06T19:00:08.035Z,100895.00
2022-11-06T19:02:56.568Z,100897.91
2022-11-06T19:05:40.030Z,100890.22
2022-11-06T19:08:20.749Z,100892.47
2022-11-06T19:11:14.052Z,100887.22
2022-11-06T19:14:05.829Z,100900.78
2022-11-06T19:16:57.126Z,100903.97
2022-11-06T19:19:41.625Z,100895.22
2022-11-06T19:22:29.100Z,100903.69
2022-11-06T19:25:08.015Z,100896.50
2022-11-06T19:27:53.896Z,100904.06
2022-11-06T19:30:43.896Z,100904.66
2022-11-06T19:33:26.673Z,100903.06
2022-11-06T19:36:12.122Z,100904.66
2022-11-06T19:38:51.134Z,100910.38
2022-11-06T19:41:28.631Z,100899.53
2022-11-06T19:44:05.976Z,100908.88
2022-11-06T19:47:03.384Z,100806.88
2022-11-06T19:49:49.193Z,100901.44
2022-11-06T19:55:32.462Z,100897.13
2022-11-06T19:58:15.391Z,100902.41
2022-11-06T20:01:01.909Z,100896.81
2022-11-06T20:03:41.748Z,100901.91
2022-11-06T20:06:25.433Z,100898.06
2022-11-06T20:09:52.318Z,100907.63
2022-11-06T20:12:48.139Z,100908.59
2022-11-06T20:16:02.583Z,100909.25
2022-11-06T20:19:07.717Z,100906.69
2022-11-06T20:22:02.598Z,100893.94
2022-11-06T21:08:15.273Z,100918.53
2022-11-06T21:21:12.684Z,100910.00
2022-11-06T21:24:10.773Z,100901.78
2022-11-06T21:27:00.831Z,100917.09
2022-11-06T21:29:54.367Z,100926.03
2022-11-06T21:32:42.175Z,100912.84
2022-11-06T21:35:35.717Z,100879.75
2022-11-06T21:41:27.918Z,100916.44
2022-11-06T21:47:16.092Z,100935.59
2022-11-06T21:50:29.742Z,100926.97
2022-11-06T21:53:24.213Z,100921.28
2022-11-06T21:56:15.898Z,100914.69
2022-11-06T21:59:09.157Z,100920.63
2022-11-06T22:01:52.930Z,100914.28
2022-11-06T22:07:54.221Z,100921.44
2022-11-06T22:10:47.835Z,100921.78
2022-11-06T22:17:03.111Z,100926.59
2022-11-06T22:19:47.632Z,100929.19
2022-11-06T22:22:28.864Z,100933.66
2022-11-06T22:25:05.564Z,100934.50
2022-11-06T22:27:44.032Z,100937.03
2022-11-06T22:30:34.038Z,100940.13
2022-11-06T22:33:33.960Z,100929.63
2022-11-06T22:36:35.656Z,100920.47
2022-11-06T22:39:21.941Z,100809.56
2022-11-06T22:42:07.754Z,100909.88
2022-11-06T22:44:47.914Z,100897.72
2022-11-06T22:47:32.824Z,100919.50
2022-11-06T22:50:37.539Z,100904.09
2022-11-06T22:56:22.072Z,100886.66
2022-11-06T22:59:05.430Z,100874.91
2022-11-06T23:01:51.342Z,100910.94
2022-11-06T23:04:38.722Z,100910.94
2022-11-06T23:07:26.885Z,100905.91
2022-11-06T23:10:10.968Z,100888.22
2022-11-06T23:12:51.913Z,100915.97
2022-11-06T23:15:54.478Z,100917.38
2022-11-06T23:18:37.495Z,100920.22
2022-11-06T23:21:19.415Z,100920.81
2022-11-06T23:24:20.957Z,100930.53
2022-11-06T23:27:01.139Z,100903.81
2022-11-06T23:29:51.271Z,100920.84
2022-11-06T23:32:29.019Z,100926.34
2022-11-06T23:35:16.862Z,100910.81
2022-11-06T23:38:02.125Z,100924.31
2022-11-06T23:40:48.987Z,100918.94
2022-11-06T23:43:35.118Z,100917.72
2022-11-06T23:46:13.888Z,100904.97
2022-11-06T23:49:01.904Z,100911.25
2022-11-06T23:51:46.303Z,100909.03
2022-11-06T23:54:32.679Z,100905.19
2022-11-06T23:57:22.898Z,100909.09
